createdAt,value
2022-11-22T00:00:51.851Z,95623.91
2022-11-22T00:03:19.664Z,95617.78
2022-11-22T00:05:47.437Z,95603.06
2022-11-22T00:08:15.309Z,95605.50
2022-11-22T00:10:43.106Z,95598.53
2022-11-22T00:13:11.092Z,95591.19
2022-11-22T00:15:38.862Z,95589.59
2022-11-22T00:18:06.713Z,95597.56
2022-11-22T00:20:34.897Z,95590.38
2022-11-22T00:23:03.138Z,95583.22
2022-11-22T00:25:30.902Z,95588.34
2022-11-22T00:27:58.647Z,95576.88
2022-11-22T00:30:26.424Z,95573.38
2022-11-22T00:32:54.199Z,95581.19
2022-11-22T00:35:22.072Z,95584.06
2022-11-22T00:37:49.859Z,95591.00
2022-11-22T00:40:17.814Z,95583.44
2022-11-22T00:42:45.868Z,95593.03
2022-11-22T00:45:13.660Z,95599.81
2022-11-22T00:47:41.418Z,95588.13
2022-11-22T00:50:10.451Z,95605.94
2022-11-22T00:52:38.224Z,95607.56
2022-11-22T00:55:06.842Z,95623.31
2022-11-22T00:57:34.607Z,95628.44
2022-11-22T01:00:02.395Z,95627.22
2022-11-22T01:02:30.161Z,95638.66
2022-11-22T01:04:57.860Z,95648.28
2022-11-22T01:07:25.696Z,95654.63
2022-11-22T01:09:53.511Z,95658.69
2022-11-22T01:12:21.262Z,95648.69
2022-11-22T01:14:49.112Z,95654.03
2022-11-22T01:17:17.485Z,95660.75
2022-11-22T01:19:46.075Z,95662.81
2022-11-22T01:22:13.874Z,95660.53
2022-11-22T01:24:41.654Z,95653.19
2022-11-22T01:27:09.515Z,95652.78
2022-11-22T01:29:37.301Z,95652.38
2022-11-22T01:32:05.561Z,95666.31
2022-11-22T01:34:33.328Z,95657.28
2022-11-22T01:37:01.119Z,95662.41
2022-11-22T01:39:29.144Z,95661.56
2022-11-22T01:41:57.117Z,95665.25
2022-11-22T01:44:29.316Z,95665.47
2022-11-22T01:47:23.577Z,95664.44
2022-11-22T01:49:58.146Z,95670.59
2022-11-22T01:52:30.836Z,95661.16
2022-11-22T01:55:09.064Z,95668.94
2022-11-22T01:57:40.513Z,95666.47
2022-11-22T02:00:12.465Z,95675.91
2022-11-22T02:02:58.393Z,95667.94
2022-11-22T02:05:31.321Z,95674.25
2022-11-22T02:08:30.815Z,95674.44
2022-11-22T02:11:02.251Z,95675.69
2022-11-22T02:13:34.726Z,95687.97
2022-11-22T02:16:04.165Z,95677.94
2022-11-22T02:18:36.621Z,95676.31
2022-11-22T02:21:05.803Z,95678.56
2022-11-22T02:24:01.665Z,95671.44
2022-11-22T02:26:31.336Z,95676.94
2022-11-22T02:29:05.754Z,95681.84
2022-11-22T02:31:46.549Z,95685.09
2022-11-22T02:34:14.771Z,95688.00
2022-11-22T02:36:49.584Z,95685.09
2022-11-22T02:39:22.726Z,95684.28
2022-11-22T02:41:51.540Z,95685.94
2022-11-22T02:44:20.445Z,95690.84
2022-11-22T02:46:51.942Z,95691.66
2022-11-22T02:49:24.227Z,95696.38
2022-11-22T02:51:53.438Z,95690.41
2022-11-22T02:54:21.481Z,95687.78
2022-11-22T02:56:49.360Z,95682.06
2022-11-22T02:59:17.103Z,95690.22
2022-11-22T03:01:46.911Z,95692.28
2022-11-22T03:04:24.832Z,95694.13
2022-11-22T03:06:56.237Z,95699.66
2022-11-22T03:09:26.155Z,95706.78
2022-11-22T03:11:54.717Z,95706.59
2022-11-22T03:14:22.507Z,95703.91
2022-11-22T03:16:50.974Z,95710.91
2022-11-22T03:19:18.846Z,95708.63
2022-11-22T03:21:46.857Z,95714.16
2022-11-22T03:24:15.023Z,95712.72
2022-11-22T03:26:48.426Z,95713.94
2022-11-22T03:29:18.122Z,95721.31
2022-11-22T03:31:45.982Z,95721.75
2022-11-22T03:34:14.154Z,95730.53
2022-11-22T03:36:42.791Z,95730.09
2022-11-22T03:39:10.639Z,95734.41
2022-11-22T03:41:38.473Z,95731.94
2022-11-22T03:44:06.528Z,95757.31
2022-11-22T03:46:34.491Z,95744.22
2022-11-22T03:49:02.319Z,95745.22
2022-11-22T03:51:30.108Z,95738.69
2022-11-22T03:53:58.426Z,95740.53
2022-11-22T03:56:26.224Z,95733.38
2022-11-22T03:58:54.464Z,95730.31
2022-11-22T04:01:22.256Z,95736.47
2022-11-22T04:03:50.215Z,95735.41
2022-11-22T04:06:18.480Z,95736.22
2022-11-22T04:08:46.289Z,95744.81
2022-11-22T04:11:14.088Z,95754.66
2022-11-22T04:14:00.712Z,95742.97
2022-11-22T04:16:28.461Z,95749.94
2022-11-22T04:18:56.236Z,95746.06
2022-11-22T04:21:36.148Z,95753.63
2022-11-22T04:24:24.923Z,95747.09
2022-11-22T04:26:53.580Z,95748.31
2022-11-22T04:29:22.339Z,95747.31
2022-11-22T04:32:10.585Z,95743.00
2022-11-22T04:34:38.484Z,95751.41
2022-11-22T04:37:06.938Z,95750.13
2022-11-22T04:39:34.867Z,95749.31
2022-11-22T04:42:31.952Z,95754.44
2022-11-22T04:44:59.675Z,95753.22
2022-11-22T04:47:50.084Z,95750.97
2022-11-22T04:50:36.993Z,95742.16
2022-11-22T04:53:04.934Z,95736.25
2022-11-22T04:55:32.721Z,95730.72
2022-11-22T04:58:00.662Z,95733.38
2022-11-22T05:00:30.216Z,95734.19
2022-11-22T05:02:59.399Z,95736.84
2022-11-22T05:05:27.878Z,95745.03
2022-11-22T05:07:58.409Z,95744.41
2022-11-22T05:10:27.302Z,95746.66
2022-11-22T05:12:56.112Z,95746.22
2022-11-22T05:15:23.980Z,95750.13
2022-11-22T05:17:51.887Z,95754.41
2022-11-22T05:20:19.663Z,95759.72
2022-11-22T05:23:05.945Z,95761.97
2022-11-22T05:25:33.686Z,95768.31
2022-11-22T05:28:01.438Z,95769.97
2022-11-22T05:30:29.182Z,95764.03
2022-11-22T05:32:56.942Z,95778.16
2022-11-22T05:35:24.677Z,95779.56
2022-11-22T05:37:52.450Z,95784.88
2022-11-22T05:40:20.202Z,95775.91
2022-11-22T05:42:48.089Z,95777.53
2022-11-22T05:45:15.977Z,95775.28
2022-11-22T05:47:45.450Z,95771.22
2022-11-22T05:50:13.652Z,95780.84
2022-11-22T05:52:41.520Z,95776.53
2022-11-22T05:55:09.597Z,95776.53
2022-11-22T05:57:37.375Z,95777.34
2022-11-22T06:00:07.577Z,95788.19
2022-11-22T06:02:39.663Z,95793.09
2022-11-22T06:05:08.045Z,95785.94
2022-11-22T06:07:35.898Z,95792.88
2022-11-22T06:10:04.203Z,95798.59
2022-11-22T06:12:31.950Z,95800.03
2022-11-22T06:14:59.677Z,95806.16
2022-11-22T06:17:27.436Z,95805.97
2022-11-22T06:19:55.182Z,95811.06
2022-11-22T06:22:22.988Z,95810.44
2022-11-22T06:24:50.724Z,95811.66
2022-11-22T06:27:18.554Z,95815.94
2022-11-22T06:29:46.356Z,95825.97
2022-11-22T06:32:14.165Z,95823.72
2022-11-22T06:34:41.949Z,95839.25
2022-11-22T06:37:09.746Z,95838.44
2022-11-22T06:39:37.855Z,95842.94
2022-11-22T06:42:05.822Z,95854.38
2022-11-22T06:44:34.301Z,95865.38
2022-11-22T06:47:02.063Z,95864.56
2022-11-22T06:49:29.923Z,95872.72
2022-11-22T06:51:57.910Z,95876.44
2022-11-22T06:54:25.604Z,95892.16
2022-11-22T06:56:53.402Z,95886.84
2022-11-22T06:59:21.273Z,95898.31
2022-11-22T07:01:49.080Z,95888.69
2022-11-22T07:04:16.871Z,95882.75
2022-11-22T07:06:44.667Z,95896.84
2022-11-22T07:09:12.644Z,95906.66
2022-11-22T07:11:41.558Z,95909.94
2022-11-22T07:14:09.679Z,95906.91
2022-11-22T07:16:39.145Z,95909.56
2022-11-22T07:19:07.591Z,95908.97
2022-11-22T07:21:37.538Z,95914.09
2022-11-22T07:24:07.288Z,95912.03
2022-11-22T07:26:35.097Z,95922.91
2022-11-22T07:29:03.598Z,95911.66
2022-11-22T07:31:31.452Z,95912.91
2022-11-22T07:33:59.244Z,95916.84
2022-11-22T07:36:29.593Z,95914.19
2022-11-22T07:38:57.600Z,95921.94
2022-11-22T07:41:25.581Z,95925.44
2022-11-22T07:43:54.399Z,95926.66
2022-11-22T07:46:31.078Z,95934.63
2022-11-22T07:49:01.383Z,95939.13
2022-11-22T07:51:30.310Z,95937.28
2022-11-22T07:53:58.664Z,95932.59
2022-11-22T07:56:26.727Z,95941.81
2022-11-22T07:58:55.344Z,95941.81
2022-11-22T08:01:23.731Z,95954.72
2022-11-22T08:03:51.658Z,95956.34
2022-11-22T08:06:19.385Z,95958.19
2022-11-22T08:08:47.176Z,95957.56
2022-11-22T08:11:14.986Z,95961.03
2022-11-22T08:13:42.856Z,95966.38
2022-11-22T08:16:14.684Z,95964.72
2022-11-22T08:18:48.286Z,95963.91
2022-11-22T08:21:18.776Z,95962.28
2022-11-22T08:23:47.782Z,95962.28
2022-11-22T08:26:17.979Z,95961.25
2022-11-22T08:28:45.832Z,95966.75
2022-11-22T08:31:19.625Z,95964.09
2022-11-22T08:33:48.875Z,95953.44
2022-11-22T08:36:16.684Z,95957.75
2022-11-22T08:38:44.939Z,95968.22
2022-11-22T08:41:12.868Z,95950.41
2022-11-22T08:43:40.989Z,95954.31
2022-11-22T08:46:08.779Z,95951.88
2022-11-22T08:48:38.513Z,95941.44
2022-11-22T08:51:10.117Z,95946.41
2022-11-22T08:53:43.527Z,95943.75
2022-11-22T08:56:15.201Z,95936.19
2022-11-22T08:58:43.353Z,95941.31
2022-11-22T09:01:15.608Z,95940.06
2022-11-22T09:03:45.043Z,95934.97
2022-11-22T09:09:30.106Z,95930.28
2022-11-22T09:11:51.307Z,95929.03
2022-11-22T09:14:19.067Z,95917.16
2022-11-22T09:16:46.826Z,95924.53
2022-11-22T09:19:14.670Z,95924.53
2022-11-22T09:21:42.461Z,95931.50
2022-11-22T09:24:10.252Z,95924.94
2022-11-22T09:26:38.029Z,95934.34
2022-11-22T09:29:06.473Z,95939.09
2022-11-22T09:31:34.277Z,95938.66
2022-11-22T09:34:02.216Z,95938.88
2022-11-22T09:36:31.003Z,95938.66
2022-11-22T09:38:58.967Z,95949.53
2022-11-22T09:42:04.447Z,95948.28
2022-11-22T09:44:38.224Z,95944.84
2022-11-22T09:48:10.059Z,95961.81
2022-11-22T09:51:06.776Z,95963.66
2022-11-22T09:53:59.367Z,95963.47
2022-11-22T09:56:29.572Z,95974.94
2022-11-22T09:59:03.503Z,95975.16
2022-11-22T10:01:45.915Z,95976.38
2022-11-22T10:04:33.041Z,95980.66
2022-11-22T10:07:10.724Z,95977.41
2022-11-22T10:09:54.852Z,95974.53
2022-11-22T10:12:37.044Z,95981.09
2022-11-22T10:15:42.872Z,95985.41
2022-11-22T10:18:43.661Z,95992.16
2022-11-22T10:21:15.395Z,95992.13
2022-11-22T10:23:45.033Z,95991.72
2022-11-22T10:26:35.189Z,96003.41
2022-11-22T10:29:37.495Z,95995.63
2022-11-22T10:32:35.179Z,95989.25
2022-11-22T10:35:22.524Z,95997.03
2022-11-22T10:38:11.595Z,95996.63
2022-11-22T10:40:51.100Z,95998.88
2022-11-22T10:43:45.623Z,95998.88
2022-11-22T10:46:28.066Z,95997.41
2022-11-22T10:49:49.255Z,96008.47
2022-11-22T10:52:46.920Z,96003.16
2022-11-22T10:55:38.331Z,96004.19
2022-11-22T10:58:35.819Z,96007.66
2022-11-22T11:01:40.358Z,96005.41
2022-11-22T11:04:12.306Z,96002.94
2022-11-22T11:10:26.267Z,95995.56
2022-11-22T11:13:41.963Z,95981.19
2022-11-22T11:16:15.371Z,95981.19
2022-11-22T11:19:15.036Z,95976.69
2022-11-22T11:21:42.878Z,95968.25
2022-11-22T11:24:16.578Z,95961.91
2022-11-22T11:26:54.508Z,95958.41
2022-11-22T11:29:58.622Z,95958.22
2022-11-22T11:32:27.351Z,95965.59
2022-11-22T11:35:04.778Z,95957.59
2022-11-22T11:37:35.552Z,95958.22
2022-11-22T11:40:28.874Z,95962.09
2022-11-22T11:43:42.028Z,95959.25
2022-11-22T11:46:27.485Z,95945.91
2022-11-22T11:49:17.311Z,95941.38
2022-11-22T11:51:48.742Z,95951.22
2022-11-22T11:54:25.857Z,95949.16
2022-11-22T11:56:56.626Z,95942.97
2022-11-22T11:59:37.685Z,95943.25
2022-11-22T12:02:24.810Z,95938.75
2022-11-22T12:04:53.582Z,95932.97
2022-11-22T12:07:25.693Z,95930.53
2022-11-22T12:09:56.016Z,95929.69
2022-11-22T12:12:52.621Z,95925.59
2022-11-22T12:15:45.607Z,95920.66
2022-11-22T12:18:44.597Z,95915.53
2022-11-22T12:21:41.137Z,95917.16
2022-11-22T12:27:03.861Z,95925.59
2022-11-22T12:29:35.592Z,95910.41
2022-11-22T12:32:18.597Z,95906.53
2022-11-22T12:35:03.384Z,95893.84
2022-11-22T12:37:49.846Z,95904.97
2022-11-22T12:40:47.327Z,95892.78
2022-11-22T12:43:25.451Z,95893.41
2022-11-22T12:46:00.674Z,95890.75
2022-11-22T12:48:34.757Z,95878.03
2022-11-22T12:51:28.362Z,95881.56
2022-11-22T12:54:02.101Z,95881.53
2022-11-22T12:56:49.519Z,95884.19
2022-11-22T12:59:57.757Z,95881.97
2022-11-22T13:02:58.629Z,95882.13
2022-11-22T13:05:51.827Z,95883.16
2022-11-22T13:08:51.612Z,95882.16
2022-11-22T13:11:45.120Z,95891.19
2022-11-22T13:14:47.568Z,95879.13
2022-11-22T13:17:17.636Z,95886.09
2022-11-22T13:19:54.224Z,95883.41
2022-11-22T13:22:57.796Z,95888.56
2022-11-22T13:25:44.029Z,95880.53
2022-11-22T13:28:20.755Z,95885.47
2022-11-22T13:31:24.328Z,95881.34
2022-11-22T13:33:57.417Z,95884.78
2022-11-22T13:36:45.367Z,95880.72
2022-11-22T13:39:20.387Z,95901.84
2022-11-22T13:41:57.082Z,95897.97
2022-11-22T13:44:30.919Z,95895.94
2022-11-22T13:47:00.839Z,95899.00
2022-11-22T13:49:48.816Z,95897.81
2022-11-22T13:52:23.478Z,95899.41
2022-11-22T13:54:53.238Z,95900.63
2022-11-22T13:57:38.863Z,95906.59
2022-11-22T14:00:12.985Z,95894.69
2022-11-22T14:02:47.931Z,95898.19
2022-11-22T14:05:36.580Z,95893.09
2022-11-22T14:08:42.419Z,95889.00
2022-11-22T14:11:40.719Z,95900.91
2022-11-22T14:14:28.880Z,95893.72
2022-11-22T14:18:04.715Z,95901.50
2022-11-22T14:20:57.441Z,95899.66
2022-11-22T14:24:02.146Z,95902.31
2022-11-22T14:26:39.271Z,95910.13
2022-11-22T14:29:53.505Z,95914.00
2022-11-22T14:32:24.616Z,95915.03
2022-11-22T14:35:04.459Z,95920.16
2022-11-22T14:37:32.481Z,95917.72
2022-11-22T14:40:07.547Z,95936.38
2022-11-22T14:42:40.000Z,95932.44
2022-11-22T14:45:10.556Z,95936.34
2022-11-22T14:47:51.987Z,95933.25
2022-11-22T14:50:38.904Z,95934.91
2022-11-22T14:53:39.448Z,95934.50
2022-11-22T14:56:13.211Z,95941.25
2022-11-22T14:59:01.108Z,95940.03
2022-11-22T15:01:54.785Z,95940.25
2022-11-22T15:09:12.132Z,95943.53
2022-11-22T15:09:13.537Z,95948.84
2022-11-22T15:11:20.653Z,95946.22
2022-11-22T15:14:21.287Z,95943.13
2022-11-22T15:57:52.658Z,95972.47
2022-11-22T16:00:24.674Z,95973.72
2022-11-22T16:03:02.963Z,95970.84
2022-11-22T16:06:06.352Z,95977.00
2022-11-22T16:08:27.936Z,95980.47
2022-11-22T16:11:00.442Z,95980.66
2022-11-22T16:13:34.710Z,95993.81
2022-11-22T16:16:12.960Z,95988.25
2022-11-22T16:18:42.761Z,95999.72
2022-11-22T16:21:11.189Z,95995.00
2022-11-22T16:23:41.013Z,96008.75
2022-11-22T16:26:19.010Z,96013.47
2022-11-22T16:28:51.230Z,96025.34
2022-11-22T16:31:31.588Z,96018.59
2022-11-22T16:33:59.799Z,96031.50
2022-11-22T16:36:32.138Z,96026.78
2022-11-22T16:39:00.084Z,96019.78
2022-11-22T16:41:29.443Z,96020.03
2022-11-22T16:44:21.192Z,96030.06
2022-11-22T16:46:49.016Z,96028.22
2022-11-22T16:49:22.252Z,96030.47
2022-11-22T16:51:51.173Z,96033.75
2022-11-22T16:54:21.289Z,96020.81
2022-11-22T16:56:49.029Z,96027.41
2022-11-22T16:59:16.816Z,96035.38
2022-11-22T17:01:44.896Z,96025.75
2022-11-22T17:04:25.345Z,96024.13
2022-11-22T17:06:53.412Z,96032.91
2022-11-22T17:09:21.198Z,96032.91
2022-11-22T17:11:49.309Z,96043.97
2022-11-22T17:14:19.539Z,96040.28
2022-11-22T17:16:47.615Z,96044.97
2022-11-22T17:19:52.173Z,96045.59
2022-11-22T17:22:07.191Z,96041.50
2022-11-22T17:24:35.814Z,96048.69
2022-11-22T17:27:03.609Z,96041.13
2022-11-22T17:32:19.807Z,96049.91
2022-11-22T17:34:47.621Z,96057.91
2022-11-22T17:37:15.640Z,96058.06
2022-11-22T17:39:43.389Z,96061.56
2022-11-22T17:42:12.117Z,96075.28
2022-11-22T17:44:39.923Z,96074.88
2022-11-22T17:47:08.795Z,96073.22
2022-11-22T17:49:36.574Z,96076.31
2022-11-22T17:52:04.634Z,96078.97
2022-11-22T17:54:32.418Z,96076.13
2022-11-22T17:57:00.214Z,96074.88
2022-11-22T17:59:28.159Z,96073.66
2022-11-22T18:01:55.999Z,96071.00
2022-11-22T18:04:23.784Z,96067.28
2022-11-22T18:06:51.572Z,96075.91
2022-11-22T18:09:19.356Z,96079.22
2022-11-22T18:11:47.680Z,96071.41
2022-11-22T18:14:15.522Z,96075.28
2022-11-22T18:16:43.394Z,96072.41
2022-11-22T18:19:11.366Z,96082.03
2022-11-22T18:21:39.140Z,96081.59
2022-11-22T18:24:08.567Z,96087.16
2022-11-22T18:26:40.720Z,96092.25
2022-11-22T18:32:00.730Z,96105.75
2022-11-22T18:34:29.376Z,96106.94
2022-11-22T18:37:01.880Z,96106.75
2022-11-22T18:39:37.963Z,96112.88
2022-11-22T18:42:10.503Z,96111.25
2022-11-22T18:44:38.340Z,96111.25
2022-11-22T18:47:06.217Z,96112.25
2022-11-22T18:49:34.750Z,96115.53
2022-11-22T18:52:02.900Z,96107.91
2022-11-22T18:54:31.141Z,96107.13
2022-11-22T18:56:59.430Z,96104.84
2022-11-22T18:59:27.405Z,96115.66
2022-11-22T19:01:55.636Z,96110.78
2022-11-22T19:04:23.431Z,96116.50
2022-11-22T19:06:51.769Z,96117.13
2022-11-22T19:09:19.621Z,96118.13
2022-11-22T19:11:47.374Z,96121.84
2022-11-22T19:14:15.245Z,96124.06
2022-11-22T19:16:43.444Z,96122.88
2022-11-22T19:19:12.246Z,96126.94
2022-11-22T19:21:40.226Z,96123.25
2022-11-22T19:24:08.256Z,96129.75
2022-11-22T19:26:36.143Z,96129.56
2022-11-22T19:29:04.959Z,96133.41
2022-11-22T19:31:33.753Z,96128.47
2022-11-22T19:34:01.547Z,96133.16
2022-11-22T19:36:33.800Z,96132.53
2022-11-22T19:39:05.976Z,96134.16
2022-11-22T19:41:34.294Z,96131.06
2022-11-22T19:44:02.133Z,96130.25
2022-11-22T19:46:30.408Z,96126.91
2022-11-22T19:48:59.937Z,96128.75
2022-11-22T19:51:30.881Z,96132.47
2022-11-22T19:54:02.782Z,96142.25
2022-11-22T19:56:34.207Z,96132.84
2022-11-22T19:59:05.177Z,96133.03
2022-11-22T20:01:35.284Z,96140.63
2022-11-22T20:04:06.480Z,96134.69
2022-11-22T20:06:36.511Z,96140.56
2022-11-22T20:09:10.931Z,96137.50
2022-11-22T20:11:40.267Z,96137.69
2022-11-22T20:14:09.560Z,96146.22
2022-11-22T20:16:42.901Z,96141.06
2022-11-22T20:19:12.406Z,96142.72
2022-11-22T20:21:40.854Z,96142.66
2022-11-22T20:24:09.039Z,96144.06
2022-11-22T20:26:36.793Z,96145.72
2022-11-22T20:29:08.162Z,96153.69
2022-11-22T20:31:38.426Z,96150.19
2022-11-22T20:34:06.290Z,96145.91
2022-11-22T20:36:35.465Z,96150.78
2022-11-22T20:39:08.576Z,96154.19
2022-11-22T20:41:38.491Z,96158.25
2022-11-22T20:44:09.548Z,96158.25
2022-11-22T20:46:38.215Z,96161.47
2022-11-22T20:49:06.546Z,96175.34
2022-11-22T20:51:39.713Z,96186.16
2022-11-22T20:54:08.767Z,96187.81
2022-11-22T20:56:38.153Z,96188.63
2022-11-22T20:59:06.000Z,96192.28
2022-11-22T21:01:33.852Z,96188.81
2022-11-22T21:04:01.929Z,96190.00
2022-11-22T21:06:29.876Z,96195.16
2022-11-22T21:08:57.694Z,96195.16
2022-11-22T21:11:28.375Z,96189.75
2022-11-22T21:13:57.775Z,96189.94
2022-11-22T21:16:29.130Z,96197.91
2022-11-22T21:19:05.064Z,96197.03
2022-11-22T21:21:35.779Z,96203.34
2022-11-22T21:24:06.035Z,96199.69
2022-11-22T21:26:34.801Z,96206.75
2022-11-22T21:29:04.883Z,96208.16
2022-11-22T21:31:32.617Z,96210.97
2022-11-22T21:34:00.403Z,96211.56
2022-11-22T21:36:28.170Z,96219.69
2022-11-22T21:38:55.936Z,96219.53
2022-11-22T21:41:40.562Z,96217.69
2022-11-22T21:44:10.649Z,96219.31
2022-11-22T21:46:38.961Z,96216.47
2022-11-22T21:49:07.206Z,96217.88
2022-11-22T21:51:35.052Z,96220.34
2022-11-22T21:54:03.683Z,96216.47
2022-11-22T21:56:31.748Z,96216.75
2022-11-22T21:59:00.020Z,96226.56
2022-11-22T22:01:28.635Z,96228.81
2022-11-22T22:03:56.540Z,96228.44
2022-11-22T22:06:25.271Z,96231.47
2022-11-22T22:08:53.071Z,96225.53
2022-11-22T22:11:21.365Z,96227.56
2022-11-22T22:13:49.377Z,96228.00
2022-11-22T22:16:19.359Z,96234.97
2022-11-22T22:18:47.540Z,96233.13
2022-11-22T22:21:17.240Z,96229.56
2022-11-22T22:23:46.126Z,96230.97
2022-11-22T22:26:17.060Z,96235.63
2022-11-22T22:28:45.991Z,96231.53
2022-11-22T22:31:23.122Z,96238.00
2022-11-22T22:33:56.183Z,96237.94
2022-11-22T22:36:26.544Z,96234.84
2022-11-22T22:38:55.190Z,96230.72
2022-11-22T22:41:23.053Z,96231.44
2022-11-22T22:43:51.598Z,96228.78
2022-11-22T22:46:27.242Z,96235.75
2022-11-22T22:48:55.079Z,96237.59
2022-11-22T22:51:33.127Z,96234.09
2022-11-22T22:54:01.842Z,96236.50
2022-11-22T22:56:31.388Z,96230.81
2022-11-22T22:59:01.087Z,96232.38
2022-11-22T23:01:31.361Z,96239.91
2022-11-22T23:04:01.575Z,96236.34
2022-11-22T23:06:33.309Z,96244.84
2022-11-22T23:09:02.492Z,96244.75
2022-11-22T23:11:50.645Z,96254.06
2022-11-22T23:14:25.373Z,96249.34
2022-11-22T23:16:57.567Z,96250.69
2022-11-22T23:19:27.335Z,96252.69
2022-11-22T23:21:55.730Z,96259.00
2022-11-22T23:24:23.528Z,96257.19
2022-11-22T23:26:51.450Z,96263.84
2022-11-22T23:29:19.494Z,96260.22
2022-11-22T23:31:47.220Z,96256.53
2022-11-22T23:34:15.210Z,96254.34
2022-11-22T23:36:42.978Z,96249.88
2022-11-22T23:39:11.672Z,96260.13
2022-11-22T23:41:39.394Z,96255.28
2022-11-22T23:44:07.396Z,96248.41
2022-11-22T23:46:35.192Z,96255.91
2022-11-22T23:49:05.749Z,96256.09
2022-11-22T23:51:35.258Z,96253.25
2022-11-22T23:54:05.824Z,96260.03
2022-11-22T23:56:35.703Z,96264.13
2022-11-22T23:59:05.672Z,96265.63
